Time;durP1;ratioP1;P1;durP2;ratioP2;P2;SDS_P1;SDS_P2;PMS_P1;PMS_P2;Temp;Humidity;BMP_temperature;BMP_pressure;BME280_temperature;BME280_humidity;BME280_pressure;Samples;Min_cycle;Max_cycle;Signal;HPM_P1;HPM_P2
2023/04/24 00:02:18;;;;;;;2.40;0.93;;;16.90;68.00;;;;;;5052730;28;20449;-63
2023/04/24 00:04:45;;;;;;;1.97;1.10;;;16.80;67.90;;;;;;5049340;28;20947;-63
2023/04/24 00:07:12;;;;;;;1.20;1.03;;;16.90;67.90;;;;;;5041858;28;20445;-63
2023/04/24 00:09:40;;;;;;;2.30;1.20;;;16.90;67.70;;;;;;5052444;28;20542;-63
2023/04/24 00:12:07;;;;;;;1.23;1.00;;;16.90;67.70;;;;;;5052769;28;20455;-64
2023/04/24 00:14:35;;;;;;;2.30;1.07;;;16.90;67.60;;;;;;5052144;28;20500;-64
2023/04/24 00:17:02;;;;;;;1.00;1.00;;;16.90;67.60;;;;;;5052682;28;20460;-62
2023/04/24 00:19:29;;;;;;;2.20;1.10;;;16.90;67.50;;;;;;5050379;28;20456;-64
2023/04/24 00:21:56;;;;;;;1.50;1.40;;;16.90;67.50;;;;;;5045289;28;20460;-64
2023/04/24 00:24:22;;;;;;;0.90;0.90;;;16.90;67.50;;;;;;5052226;28;20441;-64
2023/04/24 00:26:51;;;;;;;1.57;1.10;;;16.90;67.60;;;;;;5052482;28;20806;-64
2023/04/24 00:29:17;;;;;;;1.57;1.10;;;16.90;67.50;;;;;;5052355;28;20955;-64
2023/04/24 00:31:44;;;;;;;1.20;1.10;;;16.90;67.40;;;;;;5052519;28;20559;-64
2023/04/24 00:34:12;;;;;;;1.33;1.20;;;16.80;68.20;;;;;;5050936;28;20458;-64
2023/04/24 00:36:39;;;;;;;2.40;1.10;;;16.90;67.50;;;;;;5039890;28;20453;-64
2023/04/24 00:39:08;;;;;;;2.07;1.17;;;16.80;67.30;;;;;;5032437;28;20548;-64
2023/04/24 00:41:36;;;;;;;1.07;0.97;;;16.90;67.50;;;;;;5032585;28;20449;-64
2023/04/24 00:44:04;;;;;;;1.43;1.10;;;16.90;67.60;;;;;;5032340;28;20999;-64
2023/04/24 00:46:32;;;;;;;2.30;1.00;;;16.80;67.40;;;;;;5032010;28;20957;-64
2023/04/24 00:49:00;;;;;;;1.20;1.10;;;16.80;67.60;;;;;;5031901;28;20468;-65
2023/04/24 00:51:27;;;;;;;0.90;0.90;;;16.80;68.20;;;;;;5049743;28;20505;-64
2023/04/24 00:53:54;;;;;;;1.23;1.10;;;16.80;67.40;;;;;;5052111;28;21019;-64
2023/04/24 00:56:21;;;;;;;2.73;1.20;;;16.80;67.40;;;;;;5051758;28;20503;-64
2023/04/24 00:58:48;;;;;;;1.23;1.07;;;16.80;67.60;;;;;;5051967;28;20475;-64
2023/04/24 01:01:16;;;;;;;1.40;1.10;;;16.80;67.60;;;;;;5052134;28;20790;-64
2023/04/24 01:03:44;;;;;;;1.53;1.00;;;16.80;67.40;;;;;;5051828;28;20448;-64
2023/04/24 01:06:11;;;;;;;1.57;1.00;;;16.70;68.40;;;;;;5034441;28;20453;-64
2023/04/24 01:08:39;;;;;;;4.77;1.30;;;16.60;67.40;;;;;;5051931;28;20450;-64
2023/04/24 01:11:06;;;;;;;1.97;1.10;;;16.70;67.70;;;;;;5052201;28;20453;-64
2023/04/24 01:13:33;;;;;;;2.70;1.20;;;16.80;67.70;;;;;;5051971;28;20478;-64
2023/04/24 01:16:01;;;;;;;1.27;1.00;;;16.80;67.60;;;;;;5051398;28;20479;-64
2023/04/24 01:18:29;;;;;;;1.30;1.03;;;16.80;67.70;;;;;;5051481;28;20480;-64
2023/04/24 01:20:59;;;;;;;0.90;0.90;;;16.80;67.60;;;;;;5034161;28;20949;-64
2023/04/24 01:23:27;;;;;;;1.70;1.30;;;16.70;67.50;;;;;;5032026;28;20449;-64
2023/04/24 01:25:54;;;;;;;2.00;1.10;;;16.70;67.60;;;;;;5031706;28;20475;-64
2023/04/24 01:28:21;;;;;;;1.13;0.97;;;16.80;67.70;;;;;;5031792;28;20830;-64
2023/04/24 01:30:49;;;;;;;1.30;1.20;;;16.80;67.70;;;;;;5031897;28;20469;-64
2023/04/24 01:33:16;;;;;;;1.13;0.83;;;16.80;67.60;;;;;;5031477;28;20865;-64
2023/04/24 01:35:43;;;;;;;2.50;1.13;;;16.70;67.80;;;;;;5049671;28;20480;-64
2023/04/24 01:38:10;;;;;;;1.83;1.20;;;16.70;67.90;;;;;;5051882;28;20440;-64
2023/04/24 01:40:39;;;;;;;2.07;1.40;;;16.70;68.00;;;;;;5051777;28;20455;-64
2023/04/24 01:43:06;;;;;;;3.93;1.27;;;16.70;68.10;;;;;;5051409;28;20514;-64
2023/04/24 01:45:33;;;;;;;1.20;1.00;;;16.70;68.10;;;;;;5054628;28;20450;-64
2023/04/24 01:48:01;;;;;;;2.37;1.10;;;16.60;68.30;;;;;;5054806;28;20812;-64
2023/04/24 01:50:27;;;;;;;0.80;0.80;;;16.60;68.70;;;;;;5037793;28;20453;-64
2023/04/24 01:52:55;;;;;;;2.77;1.03;;;16.50;69.00;;;;;;5035724;28;20449;-64
2023/04/24 01:55:22;;;;;;;1.43;1.20;;;16.50;69.60;;;;;;5035474;28;20562;-64
2023/04/24 01:57:51;;;;;;;1.13;1.00;;;16.60;70.00;;;;;;5038940;28;20486;-63
2023/04/24 02:00:18;;;;;;;0.97;0.90;;;16.50;70.20;;;;;;5053107;28;20949;-64
2023/04/24 02:02:46;;;;;;;1.93;1.17;;;16.40;70.40;;;;;;5055104;28;20808;-63
2023/04/24 02:05:12;;;;;;;2.47;1.50;;;16.40;70.60;;;;;;5055148;28;20535;-63
2023/04/24 02:07:39;;;;;;;2.07;1.07;;;16.50;70.60;;;;;;5054853;28;20448;-64
2023/04/24 02:10:07;;;;;;;1.43;0.90;;;16.50;70.60;;;;;;5055064;28;20455;-64
2023/04/24 02:12:34;;;;;;;1.37;1.00;;;16.50;70.50;;;;;;5054805;28;20474;-64
2023/04/24 02:15:02;;;;;;;1.80;1.23;;;16.60;70.60;;;;;;5054729;28;20483;-64
2023/04/24 02:17:30;;;;;;;2.43;1.13;;;16.60;70.60;;;;;;5053806;28;20476;-64
2023/04/24 02:19:57;;;;;;;1.93;1.10;;;16.50;70.70;;;;;;5054836;28;20551;-64
2023/04/24 02:22:24;;;;;;;1.47;0.90;;;16.40;70.60;;;;;;5054904;28;20455;-64
2023/04/24 02:24:51;;;;;;;1.00;0.90;;;16.40;71.00;;;;;;5054770;28;20455;-64
2023/04/24 02:27:17;;;;;;;1.57;1.10;;;16.40;71.10;;;;;;5054185;28;20452;-64
2023/04/24 02:29:44;;;;;;;1.23;1.07;;;16.40;71.20;;;;;;5054377;28;20475;-64
2023/04/24 02:32:15;;;;;;;2.87;1.00;;;16.50;71.10;;;;;;5040987;28;20492;-64
2023/04/24 02:34:42;;;;;;;2.13;1.13;;;16.50;71.20;;;;;;5034668;28;20463;-64
2023/04/24 02:37:09;;;;;;;1.20;1.10;;;16.50;71.10;;;;;;5034474;28;20453;-64
2023/04/24 02:39:36;;;;;;;1.67;1.17;;;16.50;71.30;;;;;;5034317;28;20453;-63
2023/04/24 02:42:03;;;;;;;1.87;1.40;;;16.50;71.30;;;;;;5034448;28;20485;-64
2023/04/24 02:44:30;;;;;;;1.17;1.00;;;16.60;71.40;;;;;;5034545;28;20464;-64
2023/04/24 02:46:56;;;;;;;1.97;1.13;;;16.60;72.00;;;;;;5047185;28;20444;-64
2023/04/24 02:49:25;;;;;;;1.83;1.10;;;16.60;71.60;;;;;;5054279;28;20452;-64
2023/04/24 02:51:52;;;;;;;2.47;1.13;;;16.60;71.70;;;;;;5054336;28;20448;-64
2023/04/24 02:54:19;;;;;;;2.03;1.20;;;16.60;71.70;;;;;;5053909;28;20448;-64
2023/04/24 02:56:46;;;;;;;2.00;1.13;;;16.60;71.80;;;;;;5053085;28;20483;-64
2023/04/24 02:59:13;;;;;;;3.57;1.30;;;16.40;71.90;;;;;;5053366;28;20468;-64
2023/04/24 03:01:40;;;;;;;1.23;1.10;;;16.30;72.30;;;;;;5053744;28;20452;-64
2023/04/24 03:04:06;;;;;;;1.40;1.30;;;16.40;73.30;;;;;;5054099;28;20448;-64
2023/04/24 03:06:35;;;;;;;1.43;1.00;;;16.30;74.10;;;;;;5054032;28;20463;-64
2023/04/24 03:09:03;;;;;;;1.40;1.30;;;16.20;75.70;;;;;;5053379;28;20476;-64
2023/04/24 03:11:30;;;;;;;1.23;1.10;;;16.20;76.30;;;;;;5054060;28;20558;-64
2023/04/24 03:13:56;;;;;;;1.37;1.17;;;15.90;76.30;;;;;;5053731;28;20449;-64
2023/04/24 03:16:23;;;;;;;1.70;1.33;;;15.80;77.20;;;;;;5053354;28;20571;-64
2023/04/24 03:18:50;;;;;;;1.87;1.23;;;15.80;77.50;;;;;;5053390;28;20537;-64
2023/04/24 03:21:17;;;;;;;3.20;1.47;;;15.80;77.80;;;;;;5053972;28;20444;-64
2023/04/24 03:23:45;;;;;;;1.30;1.17;;;15.70;78.00;;;;;;5053291;28;20472;-64
2023/04/24 03:26:12;;;;;;;1.70;1.60;;;15.50;78.80;;;;;;5053722;28;20475;-64
2023/04/24 03:28:39;;;;;;;2.23;1.27;;;15.40;78.80;;;;;;5053114;28;20444;-64
2023/04/24 03:31:06;;;;;;;1.27;1.17;;;15.30;78.70;;;;;;5040391;28;20460;-64
2023/04/24 03:33:33;;;;;;;3.03;1.70;;;15.40;79.20;;;;;;5033721;28;20446;-64
2023/04/24 03:35:59;;;;;;;2.40;1.70;;;15.30;78.00;;;;;;5033395;28;21031;-64
2023/04/24 03:38:26;;;;;;;2.13;1.40;;;15.30;77.00;;;;;;5033023;28;20464;-64
2023/04/24 03:40:54;;;;;;;1.70;1.60;;;15.40;76.90;;;;;;5033323;28;20468;-64
2023/04/24 03:43:21;;;;;;;1.83;1.60;;;15.50;75.70;;;;;;5033220;28;20445;-64
2023/04/24 03:45:48;;;;;;;2.57;2.00;;;15.40;76.40;;;;;;5033332;28;20922;-64
2023/04/24 03:48:15;;;;;;;2.07;1.70;;;15.30;75.60;;;;;;5033329;28;20451;-64
2023/04/24 03:50:42;;;;;;;2.07;1.87;;;15.30;75.90;;;;;;5033014;28;21142;-64
2023/04/24 03:53:09;;;;;;;2.40;1.67;;;15.30;76.30;;;;;;5033214;28;20473;-64
2023/04/24 03:55:35;;;;;;;3.70;2.37;;;15.40;76.60;;;;;;5033192;28;20492;-64
2023/04/24 03:58:04;;;;;;;2.20;2.00;;;15.50;76.60;;;;;;5032845;28;20477;-64
2023/04/24 04:00:33;;;;;;;1.70;1.60;;;15.60;77.10;;;;;;5044439;28;20495;-64
2023/04/24 04:03:00;;;;;;;1.60;1.50;;;15.60;77.20;;;;;;5052933;28;20491;-64
2023/04/24 04:05:26;;;;;;;2.67;1.60;;;15.50;77.00;;;;;;5053039;28;20468;-64
2023/04/24 04:07:53;;;;;;;2.50;1.90;;;15.50;76.60;;;;;;5052545;28;20472;-64
2023/04/24 04:10:20;;;;;;;2.10;1.63;;;15.40;77.40;;;;;;5052418;28;21064;-64
2023/04/24 04:12:47;;;;;;;2.10;1.60;;;15.30;76.10;;;;;;5052514;28;20471;-64
2023/04/24 04:15:15;;;;;;;2.53;1.70;;;15.40;75.90;;;;;;5040601;28;20501;-64
2023/04/24 04:17:42;;;;;;;3.40;1.83;;;15.40;75.90;;;;;;5032823;28;20944;-64
2023/04/24 04:20:10;;;;;;;2.77;1.70;;;15.40;75.60;;;;;;5032476;28;20465;-64
2023/04/24 04:22:37;;;;;;;4.03;1.80;;;15.40;74.80;;;;;;5032469;28;20497;-64
2023/04/24 04:25:05;;;;;;;1.63;1.53;;;15.30;74.90;;;;;;5032885;28;20499;-64
2023/04/24 04:27:32;;;;;;;2.00;1.47;;;15.40;75.20;;;;;;5032220;28;20444;-64
2023/04/24 04:30:01;;;;;;;1.90;1.80;;;15.50;74.90;;;;;;5044239;28;20522;-64
2023/04/24 04:32:29;;;;;;;1.87;1.57;;;15.50;74.50;;;;;;5052227;28;20483;-64
2023/04/24 04:34:56;;;;;;;3.10;1.60;;;15.40;73.70;;;;;;5052438;28;20464;-64
2023/04/24 04:37:23;;;;;;;1.97;1.70;;;15.30;73.70;;;;;;5052067;28;21169;-64
2023/04/24 04:39:50;;;;;;;1.93;1.80;;;15.40;73.90;;;;;;5051781;28;20899;-64
2023/04/24 04:42:18;;;;;;;1.50;1.40;;;15.40;74.70;;;;;;5051833;28;20441;-64
2023/04/24 04:44:46;;;;;;;1.80;1.70;;;15.40;73.60;;;;;;5051877;28;20460;-64
2023/04/24 04:47:13;;;;;;;1.50;1.40;;;15.50;73.80;;;;;;5052351;28;20452;-64
2023/04/24 04:49:41;;;;;;;2.03;1.50;;;15.30;73.90;;;;;;5052077;28;20601;-64
2023/04/24 04:52:08;;;;;;;1.90;1.60;;;15.30;74.10;;;;;;5051972;28;20563;-64
2023/04/24 04:54:35;;;;;;;1.90;1.80;;;15.20;74.10;;;;;;5051924;28;20451;-64
2023/04/24 04:57:02;;;;;;;2.73;2.03;;;15.00;73.60;;;;;;5052103;28;20488;-64
2023/04/24 04:59:28;;;;;;;3.20;1.90;;;14.90;73.20;;;;;;5039433;28;20496;-64
2023/04/24 05:01:55;;;;;;;2.07;1.90;;;15.00;73.50;;;;;;5031779;28;20957;-64
2023/04/24 05:04:22;;;;;;;1.93;1.83;;;15.00;72.90;;;;;;5032030;28;20560;-64
2023/04/24 05:06:51;;;;;;;1.97;1.77;;;15.00;72.90;;;;;;5037972;28;20480;-64
2023/04/24 05:09:18;;;;;;;2.40;2.07;;;14.90;72.50;;;;;;5051647;28;20463;-64
2023/04/24 05:11:45;;;;;;;2.43;1.80;;;14.80;72.70;;;;;;5051619;28;20547;-64
2023/04/24 05:14:13;;;;;;;2.43;1.80;;;14.80;73.00;;;;;;5040537;28;20449;-64
2023/04/24 05:16:40;;;;;;;2.10;1.90;;;14.90;72.90;;;;;;5031827;28;20896;-64
2023/04/24 05:19:07;;;;;;;1.90;1.67;;;15.00;72.50;;;;;;5032526;28;20483;-64
2023/04/24 05:21:34;;;;;;;2.77;1.80;;;15.10;72.60;;;;;;5035864;28;20503;-64
2023/04/24 05:24:02;;;;;;;3.30;2.20;;;15.00;71.90;;;;;;5035560;28;20807;-64
2023/04/24 05:26:29;;;;;;;2.60;1.83;;;14.90;72.20;;;;;;5035968;28;20463;-63
2023/04/24 05:28:55;;;;;;;3.10;2.10;;;14.90;72.50;;;;;;5048438;28;20491;-64
2023/04/24 05:31:22;;;;;;;2.20;2.00;;;15.00;72.30;;;;;;5055420;28;20452;-64
2023/04/24 05:33:49;;;;;;;3.47;2.30;;;14.90;72.50;;;;;;5055341;28;20479;-64
2023/04/24 05:36:16;;;;;;;3.50;2.20;;;14.90;72.50;;;;;;5055669;28;20475;-64
2023/04/24 05:38:43;;;;;;;2.30;2.10;;;14.90;72.50;;;;;;5055069;28;20998;-64
2023/04/24 05:41:11;;;;;;;3.10;2.40;;;14.80;72.40;;;;;;5055092;28;20451;-64
2023/04/24 05:43:38;;;;;;;3.40;2.13;;;14.70;72.30;;;;;;5050110;28;20448;-64
2023/04/24 05:46:05;;;;;;;3.03;1.90;;;14.80;72.90;;;;;;5055473;28;20478;-64
2023/04/24 05:48:32;;;;;;;3.40;1.80;;;14.80;72.60;;;;;;5055417;28;20539;-64
2023/04/24 05:50:58;;;;;;;2.97;2.00;;;14.70;73.00;;;;;;5055179;28;20839;-64
2023/04/24 05:53:25;;;;;;;2.37;1.97;;;14.60;72.70;;;;;;5054820;28;20556;-64
2023/04/24 05:55:52;;;;;;;2.00;1.80;;;14.70;73.50;;;;;;5055110;28;20460;-64
2023/04/24 05:58:20;;;;;;;2.77;2.03;;;14.90;73.50;;;;;;5054831;28;20476;-63
2023/04/24 06:00:47;;;;;;;2.13;2.00;;;15.00;73.10;;;;;;5055005;28;20845;-64
2023/04/24 06:03:15;;;;;;;2.90;2.10;;;14.90;72.50;;;;;;5054749;28;20984;-64
2023/04/24 06:05:42;;;;;;;2.17;1.97;;;14.80;72.70;;;;;;5054804;28;20538;-64
2023/04/24 06:08:10;;;;;;;2.30;1.90;;;14.80;72.60;;;;;;5054455;28;20448;-65
2023/04/24 06:10:37;;;;;;;2.07;1.90;;;14.70;71.90;;;;;;5055134;28;20831;-64
2023/04/24 06:13:04;;;;;;;1.77;1.63;;;14.80;71.30;;;;;;5054265;28;20455;-64
2023/04/24 06:15:32;;;;;;;2.00;1.73;;;14.70;70.30;;;;;;5054585;28;21046;-64
2023/04/24 06:17:59;;;;;;;2.87;1.90;;;14.70;70.50;;;;;;5054603;28;20575;-64
2023/04/24 06:20:26;;;;;;;2.20;2.00;;;14.80;70.70;;;;;;5054627;28;20514;-64
2023/04/24 06:22:53;;;;;;;2.33;1.73;;;14.80;70.00;;;;;;5054248;28;20479;-64
2023/04/24 06:25:20;;;;;;;3.23;1.90;;;14.90;69.90;;;;;;5054505;28;20940;-64
2023/04/24 06:27:47;;;;;;;1.80;1.70;;;15.00;69.90;;;;;;5042843;28;20473;-64
2023/04/24 06:30:14;;;;;;;2.00;1.80;;;15.00;69.50;;;;;;5034922;28;20531;-64
2023/04/24 06:32:42;;;;;;;6.20;2.00;;;15.00;69.50;;;;;;5034277;28;20499;-64
2023/04/24 06:35:11;;;;;;;2.47;1.90;;;15.10;68.90;;;;;;5034523;28;20884;-64
2023/04/24 06:37:38;;;;;;;1.80;1.60;;;15.00;68.50;;;;;;5034318;28;20488;-64
2023/04/24 06:40:06;;;;;;;2.20;2.00;;;15.20;68.70;;;;;;5034788;28;20552;-64
2023/04/24 06:42:33;;;;;;;2.10;1.90;;;15.20;68.60;;;;;;5045893;28;20448;-64
2023/04/24 06:45:00;;;;;;;3.77;2.30;;;15.30;68.60;;;;;;5054447;28;20833;-64
2023/04/24 06:47:27;;;;;;;2.73;2.03;;;15.40;67.80;;;;;;5054267;28;20436;-64
2023/04/24 06:49:55;;;;;;;2.27;2.00;;;15.30;67.70;;;;;;5053790;28;20481;-64
2023/04/24 06:52:22;;;;;;;2.60;1.90;;;15.20;67.60;;;;;;5053999;28;20455;-64
2023/04/24 06:54:49;;;;;;;1.97;1.80;;;15.30;67.90;;;;;;5054606;28;20460;-64
2023/04/24 06:57:16;;;;;;;2.90;2.00;;;15.30;66.80;;;;;;5050778;28;20575;-64
2023/04/24 06:59:43;;;;;;;2.60;2.20;;;15.20;66.90;;;;;;5033986;28;20480;-64
2023/04/24 07:02:10;;;;;;;3.00;2.07;;;15.30;67.20;;;;;;5033583;28;20479;-64
2023/04/24 07:04:37;;;;;;;3.57;2.30;;;15.40;66.40;;;;;;5034243;28;20555;-64
2023/04/24 07:07:06;;;;;;;2.07;1.87;;;15.40;66.20;;;;;;5041538;28;20527;-64
2023/04/24 07:09:35;;;;;;;2.60;2.30;;;15.50;66.70;;;;;;5054225;28;20828;-64
2023/04/24 07:12:02;;;;;;;2.30;2.10;;;15.50;66.00;;;;;;5053444;28;20448;-64
2023/04/24 07:14:28;;;;;;;2.73;2.33;;;15.60;65.40;;;;;;5053804;28;20440;-64
2023/04/24 07:16:56;;;;;;;2.23;1.90;;;15.60;65.20;;;;;;5053371;28;20486;-64
2023/04/24 07:19:23;;;;;;;3.70;2.10;;;15.60;65.00;;;;;;5053402;28;20488;-64
2023/04/24 07:21:50;;;;;;;2.97;2.10;;;15.40;64.30;;;;;;5053621;28;20458;-64
2023/04/24 07:24:18;;;;;;;2.80;2.00;;;15.30;64.20;;;;;;5051933;28;20448;-64
2023/04/24 07:26:46;;;;;;;2.67;1.77;;;15.20;64.10;;;;;;5053546;28;20440;-64
2023/04/24 07:29:14;;;;;;;3.97;2.20;;;15.10;64.80;;;;;;5053627;28;20957;-64
2023/04/24 07:31:41;;;;;;;2.00;1.90;;;15.10;64.90;;;;;;5053427;28;20470;-64
2023/04/24 07:34:08;;;;;;;2.00;1.80;;;15.10;64.10;;;;;;5053152;28;20455;-64
2023/04/24 07:36:35;;;;;;;2.97;1.80;;;15.20;64.10;;;;;;5053222;28;20491;-64
2023/04/24 07:39:02;;;;;;;3.53;2.20;;;15.20;64.10;;;;;;5044933;28;20965;-64
2023/04/24 07:41:30;;;;;;;2.23;1.97;;;15.10;64.10;;;;;;5033175;28;20453;-64
2023/04/24 07:43:57;;;;;;;2.20;2.00;;;15.20;63.70;;;;;;5032783;28;20547;-64
2023/04/24 07:46:24;;;;;;;3.20;1.90;;;15.30;64.20;;;;;;5033171;28;20515;-64
2023/04/24 07:48:51;;;;;;;2.27;1.97;;;15.40;64.10;;;;;;5033033;28;20477;-64
2023/04/24 07:51:18;;;;;;;2.00;1.70;;;15.40;63.70;;;;;;5033162;28;20455;-64
2023/04/24 07:53:45;;;;;;;1.80;1.70;;;15.30;63.10;;;;;;5041678;28;20455;-64
2023/04/24 07:56:12;;;;;;;3.27;1.70;;;15.20;61.80;;;;;;5053199;28;20487;-64
2023/04/24 07:58:40;;;;;;;2.50;1.47;;;15.20;61.90;;;;;;5048790;28;20496;-64
2023/04/24 08:01:07;;;;;;;2.00;1.63;;;15.10;60.50;;;;;;5052934;28;20569;-64
2023/04/24 08:03:34;;;;;;;3.63;1.93;;;15.00;59.80;;;;;;5052445;28;20535;-64
2023/04/24 08:06:01;;;;;;;1.20;1.13;;;14.70;59.70;;;;;;5052791;28;20448;-64
2023/04/24 08:08:29;;;;;;;1.37;1.27;;;14.60;61.20;;;;;;5051995;28;20979;-64
2023/04/24 08:10:56;;;;;;;1.50;1.40;;;14.60;61.90;;;;;;5052948;28;20452;-64
2023/04/24 08:13:23;;;;;;;1.60;1.47;;;14.60;63.50;;;;;;5052609;28;20466;-64
2023/04/24 08:15:51;;;;;;;5.03;1.70;;;14.70;64.30;;;;;;5052848;28;20535;-64
2023/04/24 08:18:18;;;;;;;2.50;1.53;;;14.70;62.90;;;;;;5052120;28;20502;-64
2023/04/24 08:20:45;;;;;;;1.87;1.57;;;14.60;62.70;;;;;;5052621;28;20456;-64
2023/04/24 08:23:12;;;;;;;2.57;1.60;;;14.50;63.30;;;;;;5044527;28;20464;-64
2023/04/24 08:25:39;;;;;;;1.90;1.57;;;14.60;62.90;;;;;;5032234;28;20445;-64
2023/04/24 08:28:07;;;;;;;1.43;1.30;;;14.70;62.80;;;;;;5032587;28;20874;-64
2023/04/24 08:30:34;;;;;;;1.80;1.40;;;14.70;61.90;;;;;;5032473;28;20504;-64
2023/04/24 08:33:02;;;;;;;2.93;1.63;;;14.70;62.10;;;;;;5032264;28;20448;-64
2023/04/24 08:35:29;;;;;;;1.63;1.53;;;14.80;62.40;;;;;;5032122;28;20576;-64
2023/04/24 08:37:56;;;;;;;1.50;1.40;;;14.90;62.30;;;;;;5032528;28;20479;-64
2023/04/24 08:40:28;;;;;;;1.83;1.37;;;14.90;61.40;;;;;;5032373;28;20828;-64
2023/04/24 08:42:56;;;;;;;1.63;1.20;;;14.80;61.60;;;;;;5032429;28;20445;-64
2023/04/24 08:45:24;;;;;;;1.90;1.20;;;14.70;61.20;;;;;;5032162;28;20449;-63
2023/04/24 08:47:53;;;;;;;2.70;1.43;;;14.80;61.70;;;;;;5032097;28;20472;-64
2023/04/24 08:50:21;;;;;;;1.60;1.20;;;14.90;61.10;;;;;;5032114;28;20539;-64
2023/04/24 08:52:53;;;;;;;2.47;1.20;;;15.10;60.70;;;;;;5041786;28;20444;-64
2023/04/24 08:55:20;;;;;;;1.70;1.13;;;15.20;60.50;;;;;;5051392;28;20456;-64
2023/04/24 08:57:51;;;;;;;2.60;1.30;;;15.30;61.30;;;;;;5051856;28;20833;-64
2023/04/24 09:00:19;;;;;;;1.70;1.57;;;15.50;61.20;;;;;;5016480;28;20471;-64
2023/04/24 09:02:48;;;;;;;1.70;1.40;;;15.40;60.20;;;;;;5051742;28;20463;-64
2023/04/24 09:05:17;;;;;;;2.23;1.37;;;15.60;60.40;;;;;;5051707;28;20484;-64
2023/04/24 09:07:48;;;;;;;1.50;1.40;;;15.60;60.80;;;;;;5051698;28;20453;-64
2023/04/24 09:10:16;;;;;;;1.70;1.60;;;15.70;60.40;;;;;;5052057;28;20444;-64
2023/04/24 09:12:45;;;;;;;2.17;1.60;;;15.80;59.60;;;;;;5051815;28;20807;-64
2023/04/24 09:15:12;;;;;;;2.07;1.70;;;15.80;59.80;;;;;;5051773;28;20534;-64
2023/04/24 09:17:39;;;;;;;2.87;1.87;;;15.80;59.80;;;;;;5051557;28;20492;-64
2023/04/24 09:20:07;;;;;;;2.77;2.10;;;15.70;59.60;;;;;;5051718;28;20463;-64
2023/04/24 09:22:34;;;;;;;2.90;2.00;;;15.70;60.00;;;;;;5039887;28;20983;-64
2023/04/24 09:25:06;;;;;;;3.00;2.10;;;15.70;59.60;;;;;;5031913;28;20449;-64
2023/04/24 09:27:33;;;;;;;2.47;2.03;;;15.60;59.70;;;;;;5032000;28;20445;-64
2023/04/24 09:30:01;;;;;;;3.63;1.80;;;15.40;58.70;;;;;;5031457;28;20473;-64
2023/04/24 09:32:29;;;;;;;2.00;1.90;;;15.30;58.70;;;;;;5031722;28;20544;-64
2023/04/24 09:35:07;;;;;;;2.13;1.77;;;15.20;59.00;;;;;;5031527;28;21000;-64
2023/04/24 09:37:37;;;;;;;3.07;2.07;;;15.00;58.40;;;;;;5031998;28;20520;-64
2023/04/24 09:40:25;;;;;;;3.57;2.53;;;15.00;58.80;;;;;;5031653;28;20532;-64
2023/04/24 09:42:54;;;;;;;3.90;2.90;;;15.10;58.20;;;;;;5031853;28;20528;-64
2023/04/24 09:45:21;;;;;;;4.93;3.10;;;15.00;58.30;;;;;;5031226;28;20544;-63
2023/04/24 09:47:53;;;;;;;3.63;2.80;;;14.90;57.50;;;;;;5032034;28;20441;-64
2023/04/24 09:50:20;;;;;;;3.10;2.70;;;14.90;57.90;;;;;;5031846;28;20451;-64
2023/04/24 09:52:56;;;;;;;3.33;2.60;;;14.90;57.90;;;;;;5031944;28;20488;-64
2023/04/24 09:55:25;;;;;;;3.57;3.00;;;14.90;57.70;;;;;;5031295;28;20461;-63
2023/04/24 09:57:54;;;;;;;3.00;2.70;;;14.90;57.60;;;;;;5031443;28;20588;-63
2023/04/24 10:00:25;;;;;;;2.60;2.40;;;15.00;57.60;;;;;;5031599;28;20452;-64
2023/04/24 10:02:56;;;;;;;2.90;2.60;;;15.10;57.10;;;;;;5031366;28;20461;-63
2023/04/24 10:05:29;;;;;;;3.20;2.70;;;15.30;57.70;;;;;;5032516;28;20472;-64
2023/04/24 10:08:02;;;;;;;3.70;2.90;;;15.60;57.70;;;;;;5055071;28;20951;-64
2023/04/24 10:10:31;;;;;;;2.40;2.20;;;15.70;56.30;;;;;;5055365;28;20471;-63
2023/04/24 10:12:58;;;;;;;3.80;2.60;;;15.70;56.60;;;;;;5055022;28;20534;-63
2023/04/24 10:15:26;;;;;;;2.60;2.40;;;15.70;56.60;;;;;;5054460;28;20805;-64
2023/04/24 10:17:54;;;;;;;3.87;2.77;;;15.70;56.20;;;;;;5054974;28;20480;-64
2023/04/24 10:20:22;;;;;;;2.27;2.07;;;15.70;56.90;;;;;;5052191;28;20459;-64
2023/04/24 10:22:51;;;;;;;4.57;2.20;;;15.70;56.50;;;;;;5034733;28;20469;-64
2023/04/24 10:25:20;;;;;;;2.67;2.10;;;15.70;56.80;;;;;;5034831;28;20456;-64
2023/04/24 10:27:50;;;;;;;2.30;2.10;;;15.60;56.60;;;;;;5034277;28;20469;-64
2023/04/24 10:30:17;;;;;;;2.97;1.90;;;15.50;57.20;;;;;;5034841;28;20536;-64
2023/04/24 10:32:45;;;;;;;1.97;1.73;;;15.50;57.40;;;;;;5034573;28;20471;-64
2023/04/24 10:35:14;;;;;;;2.27;1.90;;;15.50;57.40;;;;;;5037476;28;21027;-63
2023/04/24 10:37:44;;;;;;;2.30;2.10;;;15.40;57.50;;;;;;5054350;28;20983;-64
2023/04/24 10:40:12;;;;;;;2.67;2.00;;;15.30;57.30;;;;;;5054433;28;20563;-63
2023/04/24 10:42:42;;;;;;;2.33;2.00;;;15.20;57.50;;;;;;5054050;28;20986;-63
2023/04/24 10:45:21;;;;;;;3.60;2.70;;;15.10;57.70;;;;;;5054224;28;20582;-64
2023/04/24 10:48:03;;;;;;;2.37;2.17;;;15.10;57.90;;;;;;5054189;28;20455;-64
2023/04/24 10:50:43;;;;;;;3.20;2.30;;;15.20;58.30;;;;;;5051651;28;20490;-63
2023/04/24 10:53:14;;;;;;;4.37;2.20;;;15.30;58.30;;;;;;5036199;28;20529;-63
2023/04/24 10:55:44;;;;;;;5.00;2.60;;;15.50;58.30;;;;;;5034249;28;20572;-64
2023/04/24 10:58:11;;;;;;;3.30;2.60;;;15.50;57.60;;;;;;5033780;28;20946;-64
2023/04/24 11:00:41;;;;;;;3.07;2.67;;;15.50;57.20;;;;;;5034508;28;20452;-64
2023/04/24 11:03:23;;;;;;;3.00;2.70;;;15.60;57.90;;;;;;5033940;28;20469;-64
2023/04/24 11:05:57;;;;;;;4.33;2.70;;;15.60;58.00;;;;;;5034211;28;20857;-64
2023/04/24 11:08:26;;;;;;;3.23;2.40;;;15.70;57.70;;;;;;5052609;28;20920;-64
2023/04/24 11:10:58;;;;;;;4.47;2.70;;;15.80;58.20;;;;;;5054052;28;20931;-64
2023/04/24 11:13:26;;;;;;;3.00;2.60;;;15.80;57.40;;;;;;5053544;28;20462;-64
2023/04/24 11:16:29;;;;;;;3.10;2.80;;;15.80;57.90;;;;;;5054100;28;20444;-64
2023/04/24 11:19:24;;;;;;;3.67;2.40;;;15.80;60.40;;;;;;4992032;28;20507;-63
2023/04/24 11:21:57;;;;;;;3.60;2.73;;;15.90;61.80;;;;;;5033716;28;20484;-64
2023/04/24 11:24:39;;;;;;;3.33;2.97;;;15.90;60.30;;;;;;5033746;28;20869;-63
2023/04/24 11:27:13;;;;;;;4.70;3.00;;;15.80;60.30;;;;;;5033155;28;20472;-64
2023/04/24 11:29:46;;;;;;;3.30;3.00;;;15.70;60.20;;;;;;5033938;28;20826;-64
2023/04/24 11:32:19;;;;;;;3.23;2.97;;;15.70;60.00;;;;;;5033762;28;20550;-63
2023/04/24 11:34:48;;;;;;;3.83;3.00;;;15.50;59.80;;;;;;5050674;28;20444;-63
2023/04/24 11:37:15;;;;;;;4.90;3.30;;;15.50;61.40;;;;;;5053118;28;20805;-63
2023/04/24 11:39:42;;;;;;;4.30;3.20;;;15.60;60.50;;;;;;5053455;28;20480;-63
2023/04/24 11:42:10;;;;;;;3.23;2.73;;;15.70;60.40;;;;;;5053060;28;20452;-63
2023/04/24 11:44:38;;;;;;;4.70;3.30;;;16.00;60.20;;;;;;5053106;28;20472;-63
2023/04/24 11:47:05;;;;;;;3.20;2.90;;;16.10;59.70;;;;;;5053086;28;20459;-64
2023/04/24 11:49:33;;;;;;;3.20;2.90;;;16.10;59.10;;;;;;5052774;28;20544;-64
2023/04/24 11:52:01;;;;;;;3.97;3.00;;;16.00;59.20;;;;;;5052953;28;20804;-63
2023/04/24 11:54:28;;;;;;;3.70;3.40;;;15.80;59.00;;;;;;5053027;28;20467;-64
2023/04/24 11:56:56;;;;;;;3.47;3.10;;;15.70;59.20;;;;;;5052775;28;20917;-64
2023/04/24 11:59:23;;;;;;;3.10;2.77;;;15.70;59.20;;;;;;5052485;28;20487;-64
2023/04/24 12:01:50;;;;;;;4.77;3.70;;;15.70;58.50;;;;;;5052732;28;20478;-64
2023/04/24 12:04:18;;;;;;;4.00;3.30;;;15.80;58.80;;;;;;5034387;28;20539;-64
2023/04/24 12:07:02;;;;;;;3.23;2.93;;;15.90;58.90;;;;;;5038179;28;20510;-64
2023/04/24 12:09:29;;;;;;;3.73;2.83;;;16.20;58.40;;;;;;5052413;28;20448;-64
2023/04/24 12:11:56;;;;;;;4.20;3.37;;;16.40;58.50;;;;;;5052950;28;20531;-64
2023/04/24 12:14:23;;;;;;;3.07;2.80;;;16.60;58.10;;;;;;5052631;28;20972;-64
2023/04/24 12:16:51;;;;;;;4.33;3.23;;;16.70;57.20;;;;;;5052152;28;20456;-63
2023/04/24 12:19:21;;;;;;;3.73;3.33;;;16.70;57.50;;;;;;5032542;28;20499;-63
2023/04/24 12:22:02;;;;;;;3.53;3.03;;;16.90;58.10;;;;;;5032885;28;20445;-63
2023/04/24 12:24:30;;;;;;;4.13;3.03;;;17.00;58.20;;;;;;5032440;28;20460;-64
2023/04/24 12:26:57;;;;;;;4.07;3.53;;;17.00;56.90;;;;;;5032382;28;21130;-64
2023/04/24 12:29:25;;;;;;;3.90;3.50;;;16.90;57.70;;;;;;5032229;28;20445;-64
2023/04/24 12:31:52;;;;;;;4.87;3.37;;;17.00;57.70;;;;;;5034653;28;20477;-64
2023/04/24 12:34:20;;;;;;;3.83;3.23;;;16.80;57.90;;;;;;5052375;28;20535;-64
2023/04/24 12:36:47;;;;;;;4.10;3.57;;;16.90;57.60;;;;;;5034433;28;20457;-64
2023/04/24 12:39:19;;;;;;;4.93;3.23;;;16.80;56.20;;;;;;5031926;28;20486;-64
2023/04/24 12:41:57;;;;;;;3.60;3.20;;;16.80;56.30;;;;;;5032423;28;20541;-64
2023/04/24 12:44:31;;;;;;;4.00;2.93;;;16.80;55.80;;;;;;5032421;28;20456;-63
2023/04/24 12:46:58;;;;;;;3.70;3.20;;;16.80;55.90;;;;;;5033534;28;20453;-64
2023/04/24 12:49:25;;;;;;;4.27;3.23;;;17.00;57.00;;;;;;5031816;28;20568;-64
2023/04/24 12:51:52;;;;;;;4.63;3.30;;;17.10;55.80;;;;;;5032458;28;20533;-64
2023/04/24 12:54:20;;;;;;;5.73;3.60;;;17.00;55.30;;;;;;5031802;28;20933;-64